Shepherd's Bush, United Kingdom
Current Conditions -  °F | °C
As of 8:50 AM on Wednesday 26 Nov 2014 (Local Time) from EGWU Reporting Station
Drizzle Drizzle  
Wind Chill:   Ceiling: 500
Heat Index:   Visibility: 1.2mi
Dew Point:   Wind: 5mph
Humidity: 100%   Direction: 70°ENE
Pressure: 29.88"   Gusts: NA
Location:  51.51°N, 0.24°W
Report Text: EGWU 260850Z 07004KT 2000 -DZ FEW001 SCT002 OVC005 08/08 Q1012 AMB TEMPO 1500 SCT001 RED
Loading
Personal Weather Stations






























Interactive Weather Map New forecast layout! Learn more

10-Day Weather Forecast

Advertisements
Track Severe Weather on mobile